ΕΜΥ, Εθνική Μετεωρολογική Υπηρεσία - Δελτία Καιρού, Προγνώσεις

ΑΕΡΟΝΑΥΤΙΛΙΑ

GREEK AIRPORTS CODES

LGZA 241750Z VRB01KT CAVOK 12/10 Q1029=

EUROPEAN AIRPORTS CODES